createdAt,value
2023-01-10T00:02:20.218Z,6.90
2023-01-10T00:04:47.283Z,10.88
2023-01-10T00:07:14.002Z,10.63
2023-01-10T00:09:40.732Z,9.70
2023-01-10T00:12:25.959Z,8.60
2023-01-10T00:14:52.613Z,13.50
2023-01-10T00:17:19.350Z,8.90
2023-01-10T00:19:45.972Z,9.07
2023-01-10T00:22:12.602Z,10.80
2023-01-10T00:24:39.366Z,12.75
2023-01-10T00:27:06.594Z,16.48
2023-01-10T00:29:34.047Z,14.38
2023-01-10T00:32:01.120Z,8.35
2023-01-10T00:34:27.799Z,7.80
2023-01-10T00:36:54.470Z,8.00
2023-01-10T00:39:21.147Z,8.95
2023-01-10T00:42:06.823Z,11.38
2023-01-10T00:44:33.512Z,8.40
2023-01-10T00:47:00.165Z,4.70
2023-01-10T00:49:26.851Z,11.00
2023-01-10T00:51:57.991Z,9.50
2023-01-10T00:54:24.715Z,11.77
2023-01-10T00:56:51.696Z,11.02
2023-01-10T00:59:18.301Z,10.45
2023-01-10T01:01:45.080Z,9.57
2023-01-10T01:04:11.723Z,8.25
2023-01-10T01:06:38.455Z,13.52
2023-01-10T01:09:05.278Z,9.13
2023-01-10T01:11:32.025Z,10.93
2023-01-10T01:13:58.770Z,12.10
2023-01-10T01:16:25.468Z,15.55
2023-01-10T01:18:52.201Z,10.60
2023-01-10T01:21:18.964Z,10.52
2023-01-10T01:23:45.588Z,10.60
2023-01-10T01:26:12.241Z,10.35
2023-01-10T01:28:38.933Z,11.90
2023-01-10T01:31:10.329Z,17.92
2023-01-10T01:33:37.335Z,17.98
2023-01-10T01:36:11.562Z,10.20
2023-01-10T01:38:39.231Z,12.82
2023-01-10T01:41:29.672Z,9.65
2023-01-10T01:44:03.194Z,9.52
2023-01-10T01:46:31.413Z,12.85
2023-01-10T01:48:58.484Z,12.60
2023-01-10T01:51:29.340Z,12.40
2023-01-10T01:54:05.572Z,12.57
2023-01-10T01:56:38.815Z,10.52
2023-01-10T01:59:17.305Z,9.23
2023-01-10T02:01:47.725Z,11.55
2023-01-10T02:04:20.452Z,7.28
2023-01-10T02:06:49.011Z,7.47
2023-01-10T02:09:22.064Z,9.00
2023-01-10T02:11:49.076Z,10.25
2023-01-10T02:14:16.461Z,12.65
2023-01-10T02:16:43.161Z,7.65
2023-01-10T02:19:23.861Z,10.32
2023-01-10T02:22:28.127Z,10.43
2023-01-10T02:25:12.900Z,13.15
2023-01-10T02:28:02.754Z,13.80
2023-01-10T02:30:40.548Z,11.65
2023-01-10T02:33:39.809Z,14.43
2023-01-10T02:36:44.801Z,12.52
2023-01-10T02:39:39.846Z,8.38
2023-01-10T02:42:13.675Z,11.05
2023-01-10T02:44:50.588Z,10.23
2023-01-10T02:47:17.216Z,12.55
2023-01-10T02:49:46.393Z,13.27
2023-01-10T02:52:19.415Z,7.65
2023-01-10T02:54:46.443Z,14.57
2023-01-10T02:57:19.576Z,5.95
2023-01-10T02:59:55.523Z,10.27
2023-01-10T03:02:38.276Z,10.00
2023-01-10T03:05:29.169Z,8.77
2023-01-10T03:08:07.821Z,5.85
2023-01-10T03:10:51.847Z,11.27
2023-01-10T03:13:26.405Z,12.48
2023-01-10T03:15:54.596Z,9.73
2023-01-10T04:00:33.454Z,11.15
2023-01-10T04:03:00.494Z,7.47
2023-01-10T04:05:27.231Z,6.55
2023-01-10T04:07:54.004Z,8.35
2023-01-10T04:10:21.137Z,12.98
2023-01-10T04:12:47.836Z,4.03
2023-01-10T04:15:14.613Z,9.07
2023-01-10T04:17:41.275Z,9.20
2023-01-10T04:20:08.789Z,6.65
2023-01-10T04:22:35.436Z,10.38
2023-01-10T04:25:02.139Z,11.23
2023-01-10T04:27:28.818Z,9.27
2023-01-10T04:29:55.503Z,7.18
2023-01-10T04:32:22.159Z,9.68
2023-01-10T04:34:48.774Z,10.40
2023-01-10T04:37:15.419Z,14.48
2023-01-10T04:39:42.086Z,12.25
2023-01-10T04:42:08.766Z,12.32
2023-01-10T04:44:35.456Z,11.68
2023-01-10T04:47:02.124Z,10.23
2023-01-10T04:49:28.780Z,8.68
2023-01-10T04:51:55.429Z,9.73
2023-01-10T04:54:22.856Z,12.10
2023-01-10T04:56:49.670Z,8.88
2023-01-10T04:59:16.787Z,7.82
2023-01-10T05:01:45.492Z,11.70
2023-01-10T05:04:12.291Z,12.13
2023-01-10T05:06:40.228Z,12.95
2023-01-10T05:09:10.094Z,9.88
2023-01-10T05:11:36.841Z,15.90
2023-01-10T05:14:03.446Z,11.02
2023-01-10T05:16:30.223Z,13.77
2023-01-10T05:18:56.944Z,14.05
2023-01-10T05:21:23.582Z,10.02
2023-01-10T05:23:50.382Z,11.48
2023-01-10T05:26:21.852Z,10.43
2023-01-10T05:28:49.143Z,13.95
2023-01-10T05:31:18.172Z,9.85
2023-01-10T05:33:49.805Z,7.32
2023-01-10T05:36:18.006Z,6.97
2023-01-10T05:38:44.937Z,14.90
2023-01-10T05:41:12.103Z,7.32
2023-01-10T05:43:38.834Z,14.02
2023-01-10T05:46:05.581Z,9.27
2023-01-10T05:48:32.306Z,5.85
2023-01-10T05:50:59.055Z,10.77
2023-01-10T05:53:25.970Z,8.02
2023-01-10T05:55:54.579Z,10.23
2023-01-10T05:58:21.462Z,9.60
2023-01-10T06:00:48.218Z,8.07
2023-01-10T06:03:15.134Z,15.68
2023-01-10T06:05:42.084Z,7.45
2023-01-10T06:08:09.990Z,12.63
2023-01-10T06:10:36.805Z,15.07
2023-01-10T06:13:05.055Z,14.50
2023-01-10T06:15:33.549Z,7.22
2023-01-10T06:18:00.233Z,19.60
2023-01-10T06:20:26.844Z,9.30
2023-01-10T06:22:53.784Z,11.73
2023-01-10T06:25:20.470Z,9.00
2023-01-10T06:27:47.203Z,13.55
2023-01-10T06:30:14.624Z,9.43
2023-01-10T06:32:42.330Z,10.60
2023-01-10T06:35:09.547Z,6.88
2023-01-10T06:37:36.298Z,10.25
2023-01-10T06:40:03.936Z,14.85
2023-01-10T06:42:30.541Z,12.65
2023-01-10T06:44:57.226Z,12.65
2023-01-10T06:47:23.844Z,7.38
2023-01-10T06:49:50.566Z,13.07
2023-01-10T06:52:17.197Z,10.38
2023-01-10T06:54:44.638Z,19.27
2023-01-10T06:57:12.385Z,12.02
2023-01-10T06:59:39.019Z,9.25
2023-01-10T07:02:06.338Z,14.48
2023-01-10T07:04:33.214Z,9.57
2023-01-10T07:07:00.437Z,9.32
2023-01-10T07:09:27.736Z,10.57
2023-01-10T07:11:54.425Z,10.20
2023-01-10T07:14:21.175Z,15.93
2023-01-10T07:16:47.867Z,12.90
2023-01-10T07:19:15.984Z,10.60
2023-01-10T07:21:42.673Z,13.73
2023-01-10T07:24:09.385Z,11.40
2023-01-10T07:26:36.125Z,11.73
2023-01-10T07:29:02.813Z,11.23
2023-01-10T07:31:29.625Z,11.52
2023-01-10T07:33:56.314Z,15.15
2023-01-10T07:36:23.028Z,12.00
2023-01-10T07:38:49.721Z,10.95
2023-01-10T07:41:16.417Z,15.88
2023-01-10T07:43:43.033Z,18.05
2023-01-10T07:46:12.195Z,13.70
2023-01-10T07:48:41.733Z,10.55
2023-01-10T07:51:08.948Z,14.60
2023-01-10T07:53:35.816Z,15.90
2023-01-10T07:56:03.918Z,11.43
2023-01-10T07:58:30.877Z,14.50
2023-01-10T08:00:59.175Z,11.48
2023-01-10T08:03:26.897Z,16.10
2023-01-10T08:06:05.380Z,8.93
2023-01-10T08:08:34.466Z,20.13
2023-01-10T08:11:02.626Z,19.90
2023-01-10T08:13:29.996Z,11.60
2023-01-10T08:15:57.122Z,18.73
2023-01-10T08:18:24.882Z,16.65
2023-01-10T08:20:53.313Z,15.77
2023-01-10T08:23:20.687Z,16.50
2023-01-10T08:25:47.927Z,13.57
2023-01-10T08:28:14.904Z,11.85
2023-01-10T08:30:41.601Z,12.07
2023-01-10T08:33:09.671Z,7.53
2023-01-10T08:35:41.476Z,16.52
2023-01-10T08:38:09.252Z,10.98
2023-01-10T08:40:35.958Z,16.85
2023-01-10T08:43:05.886Z,14.82
2023-01-10T08:45:33.119Z,12.27
2023-01-10T08:47:59.952Z,18.65
2023-01-10T08:50:26.665Z,14.80
2023-01-10T08:52:53.457Z,15.10
2023-01-10T08:55:20.777Z,14.43
2023-01-10T08:57:47.581Z,14.18
2023-01-10T09:00:14.943Z,12.77
2023-01-10T09:02:41.732Z,22.15
2023-01-10T09:05:18.601Z,14.50
2023-01-10T09:07:53.085Z,11.27
2023-01-10T09:10:21.141Z,25.65
2023-01-10T09:12:56.718Z,15.80
2023-01-10T09:15:25.823Z,15.15
2023-01-10T09:18:00.879Z,20.15
2023-01-10T09:20:29.034Z,15.98
2023-01-10T09:22:56.899Z,14.48
2023-01-10T09:25:24.905Z,10.82
2023-01-10T09:27:59.238Z,14.13
2023-01-10T09:30:27.052Z,13.50
2023-01-10T09:32:54.896Z,18.48
2023-01-10T09:35:22.288Z,18.88
2023-01-10T09:37:49.006Z,15.15
2023-01-10T09:40:37.361Z,17.08
2023-01-10T09:43:33.869Z,15.88
2023-01-10T09:46:29.770Z,13.73
2023-01-10T09:49:04.999Z,16.40
2023-01-10T09:51:48.691Z,14.48
2023-01-10T09:54:26.911Z,14.20
2023-01-10T09:56:55.112Z,15.32
2023-01-10T09:59:26.013Z,21.63
2023-01-10T10:01:59.747Z,18.10
2023-01-10T10:04:39.216Z,17.40
2023-01-10T10:07:13.765Z,13.15
2023-01-10T10:09:40.797Z,17.05
2023-01-10T10:12:36.266Z,17.65
2023-01-10T10:15:30.810Z,16.92
2023-01-10T10:18:03.558Z,15.48
2023-01-10T10:20:45.295Z,15.65
2023-01-10T10:23:46.826Z,21.13
2023-01-10T10:26:19.319Z,16.75
2023-01-10T10:28:57.981Z,15.68
2023-01-10T10:31:30.121Z,9.45
2023-01-10T10:34:36.613Z,19.75
2023-01-10T10:37:23.387Z,21.85
2023-01-10T10:39:52.232Z,13.05
2023-01-10T10:42:19.939Z,9.82
2023-01-10T10:44:54.378Z,13.18
2023-01-10T10:47:23.746Z,14.48
2023-01-10T10:49:52.936Z,12.27
2023-01-10T10:52:26.855Z,14.52
2023-01-10T10:54:54.588Z,19.85
2023-01-10T10:57:26.338Z,15.25
2023-01-10T10:59:53.469Z,13.10
2023-01-10T11:02:30.488Z,16.80
2023-01-10T11:05:04.045Z,15.40
2023-01-10T11:07:34.966Z,18.42
2023-01-10T11:10:21.659Z,14.88
2023-01-10T11:12:52.873Z,18.23
2023-01-10T11:15:37.264Z,11.80
2023-01-10T11:18:15.196Z,16.23
2023-01-10T11:20:51.285Z,17.25
2023-01-10T11:23:36.226Z,14.10
2023-01-10T11:26:04.011Z,26.20
2023-01-10T11:28:33.384Z,18.27
2023-01-10T11:31:01.064Z,18.33
2023-01-10T11:33:31.511Z,24.75
2023-01-10T11:36:10.431Z,12.00
2023-01-10T11:38:37.396Z,22.75
2023-01-10T11:41:25.217Z,21.75
2023-01-10T11:43:51.890Z,22.60
2023-01-10T11:46:21.813Z,23.23
2023-01-10T11:49:07.279Z,17.58
2023-01-10T11:51:39.383Z,27.58
2023-01-10T11:54:27.074Z,21.27
2023-01-10T11:57:08.290Z,17.75
2023-01-10T11:59:35.439Z,16.10
2023-01-10T12:02:16.659Z,20.98
2023-01-10T12:04:47.542Z,22.38
2023-01-10T12:07:14.550Z,19.42
2023-01-10T12:09:44.255Z,18.55
2023-01-10T12:12:26.544Z,18.15
2023-01-10T12:14:54.891Z,23.42
2023-01-10T12:17:30.256Z,22.55
2023-01-10T12:20:00.601Z,20.50
2023-01-10T12:22:36.893Z,18.48
2023-01-10T12:25:10.931Z,17.38
2023-01-10T12:27:37.615Z,15.55
2023-01-10T12:30:12.917Z,21.63
2023-01-10T12:32:46.747Z,18.00
2023-01-10T12:35:21.721Z,14.38
2023-01-10T12:38:13.639Z,22.10
2023-01-10T12:40:51.815Z,21.10
2023-01-10T12:43:47.557Z,22.67
2023-01-10T12:46:41.024Z,15.07
2023-01-10T12:49:24.124Z,16.70
2023-01-10T12:51:54.478Z,19.30
2023-01-10T12:54:29.118Z,22.52
2023-01-10T12:56:58.993Z,19.15
2023-01-10T12:59:38.004Z,23.80
2023-01-10T13:02:12.088Z,19.67
2023-01-10T13:04:41.269Z,19.38
2023-01-10T13:07:12.510Z,24.17
2023-01-10T13:09:42.145Z,15.93
2023-01-10T13:12:34.190Z,16.88
2023-01-10T13:15:17.679Z,14.70
2023-01-10T13:18:04.729Z,21.02
2023-01-10T13:20:42.462Z,11.40
2023-01-10T13:23:20.625Z,15.15
2023-01-10T13:26:04.509Z,14.25
2023-01-10T13:28:33.719Z,16.25
2023-01-10T13:31:04.087Z,10.75
2023-01-10T13:33:51.072Z,18.98
2023-01-10T13:36:31.588Z,18.77
2023-01-10T13:39:01.991Z,16.08
2023-01-10T13:42:18.487Z,10.40
2023-01-10T13:45:16.176Z,14.13
2023-01-10T13:47:43.465Z,11.02
2023-01-10T13:50:25.579Z,14.18
2023-01-10T13:53:01.103Z,11.80
2023-01-10T13:55:38.454Z,14.70
2023-01-10T13:58:14.421Z,14.75
2023-01-10T14:01:06.426Z,17.33
2023-01-10T14:03:40.033Z,22.52
2023-01-10T14:06:29.928Z,16.00
2023-01-10T14:09:00.157Z,15.52
2023-01-10T14:11:30.497Z,15.32
2023-01-10T14:14:00.609Z,10.65
2023-01-10T14:16:39.269Z,14.93
2023-01-10T14:19:30.797Z,13.07
2023-01-10T14:22:00.555Z,17.73
2023-01-10T14:24:28.821Z,17.23
2023-01-10T14:27:00.638Z,15.30
2023-01-10T14:29:33.847Z,13.95
2023-01-10T14:32:01.503Z,15.35
2023-01-10T14:34:31.048Z,19.38
2023-01-10T14:37:23.383Z,15.73
2023-01-10T14:39:53.029Z,19.85
2023-01-10T14:42:20.104Z,11.38
2023-01-10T14:45:24.515Z,18.15
2023-01-10T14:47:51.282Z,15.32
2023-01-10T14:50:27.632Z,16.83
2023-01-10T14:52:55.108Z,9.70
2023-01-10T14:55:22.525Z,11.00
2023-01-10T14:58:02.442Z,16.70
2023-01-10T15:00:32.255Z,11.02
2023-01-10T15:03:03.172Z,12.07
2023-01-10T15:05:32.408Z,15.90
2023-01-10T15:08:34.487Z,18.42
2023-01-10T15:11:06.565Z,16.48
2023-01-10T15:13:38.136Z,15.05
2023-01-10T15:16:07.647Z,15.50
2023-01-10T15:18:43.961Z,15.35
2023-01-10T15:21:15.366Z,13.98
2023-01-10T15:23:44.889Z,13.10
2023-01-10T15:26:18.250Z,13.85
2023-01-10T15:28:49.128Z,13.88
2023-01-10T15:31:16.905Z,15.02
2023-01-10T15:33:56.344Z,13.55
2023-01-10T15:36:28.008Z,7.25
2023-01-10T15:38:55.092Z,15.10
2023-01-10T15:41:23.662Z,12.45
2023-01-10T15:43:51.991Z,9.00
2023-01-10T15:46:24.585Z,18.85
2023-01-10T15:49:02.906Z,11.65
2023-01-10T15:51:34.360Z,11.32
2023-01-10T15:54:05.671Z,16.67
2023-01-10T15:56:40.721Z,13.20
2023-01-10T15:59:22.092Z,11.60
2023-01-10T16:02:16.631Z,8.25
2023-01-10T16:04:46.164Z,9.88
2023-01-10T16:07:29.812Z,11.77
2023-01-10T16:10:07.514Z,6.65
2023-01-10T16:12:58.370Z,14.88
2023-01-10T16:15:30.344Z,12.63
2023-01-10T16:17:57.521Z,12.38
2023-01-10T16:20:32.007Z,16.08
2023-01-10T16:23:00.937Z,8.07
2023-01-10T16:25:33.257Z,10.15
2023-01-10T16:28:00.652Z,8.65
2023-01-10T16:30:30.301Z,9.85
2023-01-10T16:32:58.333Z,15.55
2023-01-10T16:35:25.491Z,13.88
2023-01-10T16:37:57.513Z,8.98
2023-01-10T16:40:34.959Z,10.32
2023-01-10T16:43:17.504Z,12.23
2023-01-10T16:45:52.116Z,9.65
2023-01-10T16:48:20.751Z,12.30
2023-01-10T16:50:48.454Z,8.13
2023-01-10T16:53:17.351Z,12.00
2023-01-10T16:55:53.048Z,12.73
2023-01-10T16:58:20.922Z,8.07
2023-01-10T17:00:50.115Z,9.30
2023-01-10T17:03:22.635Z,12.38
2023-01-10T17:05:50.141Z,10.10
2023-01-10T17:08:19.541Z,10.80
2023-01-10T17:10:50.044Z,9.20
2023-01-10T17:13:25.348Z,8.05
2023-01-10T17:15:52.060Z,7.70
2023-01-10T17:18:18.703Z,11.88
2023-01-10T17:20:45.366Z,9.93
2023-01-10T17:23:14.898Z,8.68
2023-01-10T17:25:41.856Z,8.73
2023-01-10T17:28:11.861Z,14.65
2023-01-10T17:30:42.524Z,10.95
2023-01-10T17:33:12.094Z,10.88
2023-01-10T17:35:42.998Z,10.63
2023-01-10T17:38:11.602Z,13.05
2023-01-10T17:40:46.311Z,9.05
2023-01-10T17:43:13.565Z,11.95
2023-01-10T17:45:48.945Z,8.52
2023-01-10T17:48:17.315Z,14.85
2023-01-10T17:50:45.529Z,9.20
2023-01-10T17:53:12.921Z,11.75
2023-01-10T17:55:46.877Z,9.20
2023-01-10T17:58:14.392Z,10.57
2023-01-10T18:00:41.424Z,15.20
2023-01-10T18:03:08.983Z,10.65
2023-01-10T18:05:36.149Z,11.57
2023-01-10T18:08:05.485Z,9.18
2023-01-10T18:10:33.656Z,9.40
2023-01-10T18:13:03.172Z,10.30
2023-01-10T18:15:30.233Z,5.45
2023-01-10T18:17:57.854Z,10.10
2023-01-10T18:20:24.719Z,13.40
2023-01-10T18:23:10.381Z,8.73
2023-01-10T18:25:37.097Z,9.20
2023-01-10T18:28:03.871Z,13.55
2023-01-10T18:30:30.702Z,8.70
2023-01-10T18:32:57.400Z,8.73
2023-01-10T18:35:24.199Z,6.13
2023-01-10T18:37:50.930Z,6.35
2023-01-10T18:40:17.788Z,8.80
2023-01-10T18:42:44.520Z,8.77
2023-01-10T18:45:11.249Z,8.48
2023-01-10T18:47:37.882Z,6.30
2023-01-10T18:50:05.031Z,9.27
2023-01-10T18:52:31.705Z,4.28
2023-01-10T18:54:59.466Z,7.68
2023-01-10T18:57:27.819Z,3.65
2023-01-10T18:59:54.454Z,7.90
2023-01-10T19:02:21.269Z,5.88
2023-01-10T19:04:48.029Z,7.72
2023-01-10T19:07:14.664Z,3.30
2023-01-10T19:09:41.300Z,6.10
2023-01-10T19:12:08.213Z,7.25
2023-01-10T19:14:34.845Z,6.53
2023-01-10T19:17:01.507Z,8.93
2023-01-10T19:19:28.148Z,5.50
2023-01-10T19:21:54.803Z,7.20
2023-01-10T19:24:31.772Z,7.93
2023-01-10T19:26:58.472Z,5.78
2023-01-10T19:29:25.136Z,6.25
2023-01-10T19:31:52.508Z,7.78
2023-01-10T19:34:19.307Z,7.72
2023-01-10T19:36:46.013Z,6.90
2023-01-10T19:39:13.979Z,6.07
2023-01-10T19:41:41.601Z,3.88
2023-01-10T19:44:13.880Z,5.53
2023-01-10T19:46:41.008Z,3.90
2023-01-10T19:49:08.388Z,4.88
2023-01-10T19:51:40.260Z,5.90
2023-01-10T19:54:08.406Z,5.55
2023-01-10T19:56:35.861Z,4.80
2023-01-10T19:59:03.055Z,3.72
2023-01-10T20:01:31.133Z,3.50
2023-01-10T20:04:01.461Z,3.13
2023-01-10T20:06:30.731Z,7.38
2023-01-10T20:08:58.246Z,5.20
2023-01-10T20:11:27.009Z,3.42
2023-01-10T20:13:54.693Z,2.65
2023-01-10T20:16:23.336Z,3.22
2023-01-10T20:18:51.770Z,6.38
2023-01-10T20:21:19.206Z,4.63
2023-01-10T20:23:46.462Z,4.13
2023-01-10T20:26:18.693Z,5.57
2023-01-10T20:28:47.766Z,2.20
2023-01-10T20:31:21.509Z,3.15
2023-01-10T20:33:48.804Z,2.45
2023-01-10T20:36:18.363Z,3.88
2023-01-10T20:38:45.574Z,3.83
2023-01-10T20:41:17.559Z,3.63
2023-01-10T20:43:44.954Z,4.13
2023-01-10T20:46:14.593Z,1.20
2023-01-10T20:48:42.297Z,1.67
2023-01-10T20:51:12.763Z,2.40
2023-01-10T20:53:39.595Z,7.85
2023-01-10T20:56:09.782Z,1.83
2023-01-10T20:58:36.485Z,7.63
2023-01-10T21:01:03.699Z,2.67
2023-01-10T21:03:30.325Z,3.17
2023-01-10T21:05:59.212Z,1.65
2023-01-10T21:08:26.833Z,1.88
2023-01-10T21:10:53.544Z,1.85
2023-01-10T21:13:20.213Z,3.83
2023-01-10T21:15:47.631Z,1.02
2023-01-10T21:18:15.822Z,0.93
2023-01-10T21:20:47.032Z,1.67
2023-01-10T21:23:14.574Z,3.83
2023-01-10T21:25:41.438Z,2.47
2023-01-10T21:28:11.554Z,4.63
2023-01-10T21:30:39.494Z,1.48
2023-01-10T21:33:06.973Z,2.47
2023-01-10T21:35:36.271Z,3.47
2023-01-10T21:38:03.605Z,2.72
2023-01-10T21:40:31.728Z,3.70
2023-01-10T21:42:59.973Z,2.35
2023-01-10T21:45:28.376Z,1.20
2023-01-10T21:47:55.520Z,1.65
2023-01-10T21:50:22.636Z,6.15
2023-01-10T21:52:49.554Z,2.35
2023-01-10T21:55:17.247Z,1.67
2023-01-10T21:57:43.969Z,1.90
2023-01-10T22:00:11.159Z,2.25
2023-01-10T22:02:40.767Z,2.25
2023-01-10T22:05:08.144Z,4.35
2023-01-10T22:07:34.873Z,2.65
2023-01-10T22:10:01.564Z,1.30
2023-01-10T22:12:30.473Z,3.72
2023-01-10T22:14:57.766Z,2.30
2023-01-10T22:17:24.629Z,2.78
2023-01-10T22:19:51.509Z,5.07
2023-01-10T22:22:18.780Z,3.22
2023-01-10T22:24:47.760Z,2.13
2023-01-10T22:27:15.355Z,1.98
2023-01-10T22:29:42.420Z,1.58
2023-01-10T22:32:09.562Z,2.20
2023-01-10T22:34:36.283Z,0.95
2023-01-10T22:37:02.990Z,3.50
2023-01-10T22:39:29.762Z,1.98
2023-01-10T22:41:56.485Z,5.22
2023-01-10T22:44:26.348Z,2.83
2023-01-10T22:46:54.928Z,2.10
2023-01-10T22:49:22.346Z,2.65
2023-01-10T22:51:49.377Z,1.55
2023-01-10T22:54:16.521Z,2.25
2023-01-10T22:56:44.525Z,1.88
2023-01-10T22:59:11.745Z,1.00
2023-01-10T23:01:38.513Z,1.50
2023-01-10T23:04:05.298Z,1.02
2023-01-10T23:06:32.044Z,4.53
2023-01-10T23:08:59.339Z,2.97
2023-01-10T23:11:26.020Z,1.90
2023-01-10T23:13:52.685Z,2.65
2023-01-10T23:16:22.238Z,1.25
2023-01-10T23:18:49.457Z,2.10
2023-01-10T23:21:16.692Z,2.85
2023-01-10T23:23:43.396Z,2.03
2023-01-10T23:26:12.454Z,0.70
2023-01-10T23:28:50.594Z,1.33
2023-01-10T23:31:24.719Z,0.63
2023-01-10T23:33:51.655Z,1.27
2023-01-10T23:36:18.798Z,2.70
2023-01-10T23:38:45.757Z,0.85
2023-01-10T23:41:12.836Z,1.05
2023-01-10T23:43:39.604Z,1.45
2023-01-10T23:46:06.921Z,3.00
2023-01-10T23:48:34.280Z,1.02
2023-01-10T23:51:01.000Z,1.55
2023-01-10T23:53:27.696Z,2.55
2023-01-10T23:55:54.460Z,1.70
2023-01-10T23:58:21.248Z,1.17
